Time;durP1;ratioP1;P1;durP2;ratioP2;P2;SDS_P1;SDS_P2;PMS_P1;PMS_P2;Temp;Humidity;BMP_temperature;BMP_pressure;BME280_temperature;BME280_humidity;BME280_pressure;Samples;Min_cycle;Max_cycle;Signal;HPM_P1;HPM_P2
2022/07/03 00:01:40;;;;;;;2.77;1.50;;;19.60;99.90;;;;;;5051172;28;20193;-87
2022/07/03 00:04:06;;;;;;;1.53;1.43;;;19.60;99.90;;;;;;5050900;28;20435;-86
2022/07/03 00:06:33;;;;;;;2.40;1.70;;;19.50;99.90;;;;;;5047215;28;20261;-87
2022/07/03 00:08:59;;;;;;;2.87;1.40;;;19.50;99.90;;;;;;5043571;28;21205;-87
2022/07/03 00:11:26;;;;;;;2.23;1.07;;;19.50;99.90;;;;;;5043552;28;20507;-86
2022/07/03 00:13:51;;;;;;;2.70;1.40;;;20.20;99.90;;;;;;5044912;28;20435;-89
2022/07/03 00:16:17;;;;;;;2.70;2.23;;;19.50;99.90;;;;;;5042157;28;20891;-87
2022/07/03 00:18:43;;;;;;;4.00;1.30;;;19.50;99.90;;;;;;5044065;28;20219;-84
2022/07/03 00:21:11;;;;;;;1.70;1.60;;;19.60;99.90;;;;;;5041019;28;20208;-83
2022/07/03 00:23:40;;;;;;;0.97;0.90;;;19.60;99.90;;;;;;5039846;28;20466;-83
2022/07/03 00:26:06;;;;;;;2.40;1.47;;;19.50;99.90;;;;;;5036993;28;20440;-84
2022/07/03 00:28:32;;;;;;;2.40;1.60;;;19.50;99.90;;;;;;5040792;28;21227;-83
2022/07/03 00:30:58;;;;;;;6.30;2.90;;;19.40;99.90;;;;;;5045663;28;20192;-88
2022/07/03 00:33:27;;;;;;;4.10;2.10;;;19.10;99.90;;;;;;5051389;28;20427;-89
2022/07/03 00:35:55;;;;;;;3.40;2.10;;;19.00;99.90;;;;;;5051662;28;20507;-89
2022/07/03 00:38:22;;;;;;;4.37;2.00;;;18.90;99.90;;;;;;5051773;28;20542;-89
2022/07/03 00:40:48;;;;;;;2.80;1.70;;;18.70;99.90;;;;;;5058226;28;20830;-90
2022/07/03 00:43:15;;;;;;;7.67;2.00;;;18.70;99.90;;;;;;5061264;28;20470;-89
2022/07/03 00:45:46;;;;;;;9.23;2.17;;;18.60;99.90;;;;;;5049305;28;20185;-84
2022/07/03 00:48:14;;;;;;;1.57;1.37;;;18.80;99.90;;;;;;5039037;28;20872;-85
2022/07/03 00:50:45;;;;;;;2.17;1.80;;;18.70;99.90;;;;;;5054017;28;20437;-84
2022/07/03 00:53:13;;;;;;;2.03;1.83;;;18.60;99.90;;;;;;5054688;28;20503;-85
2022/07/03 00:55:41;;;;;;;2.17;1.60;;;18.50;99.90;;;;;;5042898;28;20420;-84
2022/07/03 00:58:07;;;;;;;4.03;2.20;;;18.40;99.90;;;;;;5041572;28;20455;-84
2022/07/03 01:00:39;;;;;;;2.70;2.10;;;18.30;99.90;;;;;;5037732;28;20432;-84
2022/07/03 01:03:14;;;;;;;4.40;1.93;;;18.10;99.90;;;;;;5036269;28;20436;-84
2022/07/03 01:05:45;;;;;;;7.83;2.73;;;18.10;99.90;;;;;;5040593;28;20424;-84
2022/07/03 01:08:33;;;;;;;2.33;1.60;;;18.10;99.90;;;;;;5040088;28;20458;-85
2022/07/03 01:11:28;;;;;;;3.10;1.93;;;18.00;99.90;;;;;;5040257;28;21054;-84
2022/07/03 01:14:40;;;;;;;3.17;2.87;;;18.00;99.90;;;;;;5046386;28;20447;-85
2022/07/03 01:17:13;;;;;;;2.60;1.70;;;17.90;99.90;;;;;;4999274;28;20510;-85
2022/07/03 01:19:42;;;;;;;1.83;1.57;;;17.90;99.90;;;;;;5038447;28;20456;-85
2022/07/03 01:22:43;;;;;;;4.70;1.63;;;18.00;99.90;;;;;;5038786;28;20440;-85
2022/07/03 01:25:14;;;;;;;2.10;1.17;;;18.10;99.90;;;;;;5041582;28;20493;-84
2022/07/03 01:28:04;;;;;;;2.10;1.43;;;18.00;99.90;;;;;;5037455;28;20447;-84
2022/07/03 01:30:33;;;;;;;1.97;1.50;;;18.00;99.90;;;;;;5039592;28;20534;-84
2022/07/03 01:33:04;;;;;;;4.30;2.03;;;18.00;99.90;;;;;;5037978;28;20420;-84
2022/07/03 01:35:43;;;;;;;2.60;1.83;;;17.90;99.90;;;;;;5054362;28;20431;-84
2022/07/03 01:38:11;;;;;;;2.70;2.10;;;18.00;99.90;;;;;;5039677;28;20448;-85
2022/07/03 01:40:40;;;;;;;2.97;1.90;;;17.90;99.90;;;;;;5042708;28;20539;-85
2022/07/03 01:43:11;;;;;;;2.77;1.83;;;17.90;99.90;;;;;;5040787;28;20435;-85
2022/07/03 01:45:42;;;;;;;3.00;1.93;;;17.80;99.90;;;;;;5041366;28;20428;-84
2022/07/03 01:48:08;;;;;;;2.90;2.67;;;17.80;99.90;;;;;;5040157;28;20452;-84
2022/07/03 01:50:35;;;;;;;4.00;2.60;;;17.70;99.90;;;;;;5042056;28;20464;-84
2022/07/03 01:53:03;;;;;;;5.93;2.87;;;17.50;99.90;;;;;;5046446;28;20432;-84
2022/07/03 01:55:30;;;;;;;7.30;3.20;;;17.30;99.90;;;;;;5040606;28;20435;-85
2022/07/03 01:57:57;;;;;;;2.93;2.63;;;17.20;99.90;;;;;;5041084;28;20534;-85
2022/07/03 02:00:23;;;;;;;3.30;2.77;;;17.10;99.90;;;;;;5037603;28;20471;-84
2022/07/03 02:03:03;;;;;;;6.73;3.47;;;17.00;99.90;;;;;;5036492;28;20435;-82
2022/07/03 02:05:34;;;;;;;4.00;3.20;;;17.00;99.90;;;;;;5037935;28;20443;-84
2022/07/03 02:08:12;;;;;;;3.73;2.80;;;16.90;99.90;;;;;;5037555;28;20462;-83
2022/07/03 02:10:46;;;;;;;5.25;3.03;;;16.90;99.90;;;;;;5042809;28;20463;-88
2022/07/03 02:13:22;;;;;;;5.47;2.70;;;16.90;99.90;;;;;;5045060;28;20176;-87
2022/07/03 02:15:51;;;;;;;3.20;2.90;;;16.90;99.90;;;;;;5043942;28;20443;-88
2022/07/03 02:18:26;;;;;;;5.47;3.30;;;16.80;99.90;;;;;;5042834;28;20447;-83
2022/07/03 02:21:04;;;;;;;4.40;3.60;;;16.80;99.90;;;;;;5039895;28;20443;-84
2022/07/03 02:23:33;;;;;;;3.60;2.70;;;16.70;99.90;;;;;;5038868;28;20539;-85
2022/07/03 02:26:03;;;;;;;3.63;3.20;;;16.50;99.90;;;;;;5038359;28;20833;-85
2022/07/03 02:29:01;;;;;;;3.97;2.63;;;16.40;99.90;;;;;;5040751;28;20463;-85
2022/07/03 02:31:27;;;;;;;7.43;2.73;;;16.30;99.90;;;;;;5037842;28;20436;-84
2022/07/03 02:33:58;;;;;;;6.33;2.83;;;16.20;99.90;;;;;;5038902;28;21074;-85
2022/07/03 02:36:28;;;;;;;2.97;2.43;;;16.20;99.90;;;;;;5040867;28;20434;-85
2022/07/03 02:38:56;;;;;;;2.83;2.53;;;16.20;99.90;;;;;;5042514;28;20454;-85
2022/07/03 02:41:43;;;;;;;2.50;2.30;;;16.20;99.90;;;;;;5039096;28;20434;-84
2022/07/03 02:44:24;;;;;;;4.43;3.40;;;16.20;99.90;;;;;;5040169;28;20484;-85
2022/07/03 02:47:02;;;;;;;2.77;2.57;;;16.20;99.90;;;;;;5040355;28;21194;-85
2022/07/03 02:49:50;;;;;;;3.20;2.90;;;16.00;99.90;;;;;;5044587;28;20462;-85
2022/07/03 02:52:34;;;;;;;5.27;2.70;;;16.00;99.90;;;;;;5041979;28;20919;-84
2022/07/03 02:55:26;;;;;;;4.10;3.27;;;16.00;99.90;;;;;;5040448;28;20508;-85
2022/07/03 02:58:17;;;;;;;4.03;2.50;;;16.10;99.90;;;;;;5041371;28;20430;-84
2022/07/03 03:00:59;;;;;;;6.27;3.40;;;16.00;99.90;;;;;;5043533;28;20484;-84
2022/07/03 03:03:30;;;;;;;3.77;3.27;;;16.10;99.90;;;;;;5042801;28;20461;-84
2022/07/03 03:06:02;;;;;;;4.40;3.20;;;16.10;99.90;;;;;;5041426;28;20490;-83
2022/07/03 03:08:50;;;;;;;7.00;3.30;;;16.00;99.90;;;;;;5044289;28;20534;-86
2022/07/03 03:11:39;;;;;;;5.10;2.87;;;15.90;99.90;;;;;;5045724;28;20451;-86
2022/07/03 03:14:08;;;;;;;4.00;2.50;;;15.90;99.90;;;;;;5047748;28;20444;-87
2022/07/03 03:16:36;;;;;;;4.50;3.30;;;15.90;99.90;;;;;;5047512;28;20432;-86
2022/07/03 03:19:01;;;;;;;6.63;2.67;;;15.90;99.90;;;;;;5045407;28;20448;-86
2022/07/03 03:21:31;;;;;;;4.67;2.80;;;15.90;99.90;;;;;;5043838;28;20435;-87
2022/07/03 03:23:57;;;;;;;5.00;2.97;;;15.80;99.90;;;;;;5046907;28;20195;-85
2022/07/03 03:26:28;;;;;;;5.80;3.67;;;15.70;99.90;;;;;;5040654;28;20442;-86
2022/07/03 03:28:54;;;;;;;6.20;2.60;;;15.70;99.90;;;;;;5048808;28;20452;-86
2022/07/03 03:31:20;;;;;;;5.27;3.77;;;15.70;99.90;;;;;;5042583;28;20439;-87
2022/07/03 03:33:50;;;;;;;4.63;2.70;;;15.80;99.90;;;;;;5045055;28;20431;-85
2022/07/03 03:36:19;;;;;;;5.17;3.20;;;15.60;99.90;;;;;;5041741;28;20433;-86
2022/07/03 03:38:46;;;;;;;6.73;3.00;;;15.60;99.90;;;;;;5041749;28;20455;-85
2022/07/03 03:41:12;;;;;;;3.30;3.00;;;15.60;99.90;;;;;;5043201;28;20846;-85
2022/07/03 03:43:38;;;;;;;6.20;3.00;;;15.70;99.90;;;;;;5041447;28;20431;-83
2022/07/03 03:46:04;;;;;;;4.10;3.07;;;15.80;99.90;;;;;;5040522;28;20262;-85
2022/07/03 03:48:33;;;;;;;5.83;2.80;;;15.90;99.90;;;;;;5042112;28;20818;-84
2022/07/03 03:50:59;;;;;;;7.80;4.10;;;16.00;99.90;;;;;;5050209;28;20507;-86
2022/07/03 03:53:26;;;;;;;4.03;3.37;;;16.10;99.90;;;;;;5052968;28;20914;-86
2022/07/03 03:56:03;;;;;;;11.70;3.93;;;16.00;99.90;;;;;;5048254;28;20506;-87
2022/07/03 03:58:31;;;;;;;12.70;5.53;;;16.00;99.90;;;;;;5054304;28;20464;-87
2022/07/03 04:00:57;;;;;;;6.10;4.70;;;16.00;99.90;;;;;;5055034;28;20454;-86
2022/07/03 04:03:24;;;;;;;5.83;4.57;;;16.10;99.90;;;;;;5044778;28;20532;-84
2022/07/03 04:05:50;;;;;;;5.60;3.23;;;16.00;99.90;;;;;;5046560;28;20436;-84
2022/07/03 04:08:15;;;;;;;6.43;4.20;;;16.00;99.90;;;;;;5039453;28;20525;-83
2022/07/03 04:10:41;;;;;;;7.30;4.10;;;16.00;99.90;;;;;;5043218;28;20209;-83
2022/07/03 04:13:06;;;;;;;2.80;2.57;;;16.10;99.90;;;;;;5042064;28;20173;-83
2022/07/03 04:15:32;;;;;;;3.00;2.70;;;16.20;99.90;;;;;;5043517;28;20221;-82
2022/07/03 04:17:58;;;;;;;5.30;2.90;;;16.30;99.90;;;;;;5038857;28;20202;-83
2022/07/03 04:20:24;;;;;;;3.70;3.23;;;16.50;99.90;;;;;;5044819;28;20288;-83
2022/07/03 04:22:50;;;;;;;6.50;3.50;;;18.10;99.90;;;;;;5044754;28;20518;-83
2022/07/03 04:25:17;;;;;;;3.07;2.73;;;20.60;99.90;;;;;;5043356;28;20438;-85
2022/07/03 04:27:43;;;;;;;6.77;3.20;;;22.80;99.90;;;;;;5047205;28;20474;-85
2022/07/03 04:30:10;;;;;;;4.67;3.00;;;25.00;99.90;;;;;;5044057;28;20463;-85
2022/07/03 04:32:39;;;;;;;5.53;3.40;;;26.60;99.90;;;;;;5045724;28;20178;-85
2022/07/03 04:35:05;;;;;;;105.07;12.87;;;28.30;99.90;;;;;;5051189;28;21310;-85
2022/07/03 04:37:30;;;;;;;7.20;3.90;;;29.70;99.90;;;;;;5054563;28;20428;-85
2022/07/03 04:39:56;;;;;;;31.97;14.33;;;31.00;98.80;;;;;;5043766;28;20444;-85
2022/07/03 04:42:22;;;;;;;4.07;2.77;;;32.20;93.90;;;;;;5042024;28;20281;-86
2022/07/03 04:44:47;;;;;;;8.17;5.30;;;33.20;91.20;;;;;;5044535;28;20929;-86
2022/07/03 04:47:14;;;;;;;2.77;2.57;;;34.40;86.00;;;;;;5050053;28;20191;-85
2022/07/03 04:49:41;;;;;;;3.77;3.43;;;35.50;78.70;;;;;;5049342;28;20203;-85
2022/07/03 04:52:07;;;;;;;4.73;3.47;;;;;;;;;;5042539;28;20425;-86
2022/07/03 04:54:32;;;;;;;4.27;3.87;;;34.20;67.90;;;;;;5044935;28;20436;-86
2022/07/03 04:56:58;;;;;;;8.80;4.93;;;33.30;70.50;;;;;;5045608;28;20493;-84
2022/07/03 04:59:23;;;;;;;4.53;3.57;;;33.30;70.70;;;;;;5042042;28;20198;-84
2022/07/03 05:01:49;;;;;;;6.63;3.40;;;33.20;71.00;;;;;;5043014;28;20267;-84
2022/07/03 05:04:18;;;;;;;3.97;3.57;;;33.30;72.50;;;;;;5042491;28;20181;-84
2022/07/03 05:06:44;;;;;;;4.80;3.40;;;34.20;70.90;;;;;;5044174;28;20208;-83
2022/07/03 05:09:10;;;;;;;8.70;4.50;;;;;;;;;;5040849;28;20500;-82
2022/07/03 05:11:35;;;;;;;5.23;4.60;;;37.10;60.70;;;;;;5040250;28;20252;-83
2022/07/03 05:14:02;;;;;;;5.83;4.97;;;38.50;59.20;;;;;;5043136;28;20449;-86
2022/07/03 05:16:29;;;;;;;6.67;6.17;;;39.70;53.20;;;;;;5044124;28;20175;-86
2022/07/03 05:18:54;;;;;;;7.37;6.60;;;39.70;53.70;;;;;;5043070;28;20451;-84
2022/07/03 05:21:20;;;;;;;8.60;7.93;;;39.90;51.70;;;;;;5042853;28;20467;-84
2022/07/03 05:23:46;;;;;;;8.73;8.03;;;39.80;49.70;;;;;;5042817;28;20587;-85
2022/07/03 05:26:11;;;;;;;8.10;7.50;;;40.20;50.40;;;;;;5049311;28;20785;-85
2022/07/03 05:28:37;;;;;;;8.20;7.60;;;40.20;48.20;;;;;;5046759;28;20612;-85
2022/07/03 05:31:03;;;;;;;7.97;7.27;;;40.50;47.90;;;;;;5046746;28;20582;-85
2022/07/03 05:33:29;;;;;;;7.47;6.77;;;41.80;46.60;;;;;;5043537;28;20182;-85
2022/07/03 05:35:55;;;;;;;7.50;6.90;;;43.10;44.30;;;;;;5045393;28;20501;-85
2022/07/03 05:41:05;;;;;;;7.90;7.40;;;43.80;42.30;;;;;;5042653;28;20804;-87
2022/07/03 05:43:30;;;;;;;9.40;8.40;;;42.20;41.50;;;;;;5041674;28;20424;-86
2022/07/03 05:45:56;;;;;;;9.00;8.20;;;41.50;44.10;;;;;;5042547;28;20182;-86
2022/07/03 05:48:21;;;;;;;8.80;8.13;;;42.80;44.00;;;;;;5038469;28;20201;-86
2022/07/03 05:50:47;;;;;;;9.90;9.20;;;42.20;43.00;;;;;;5042899;28;20255;-85
2022/07/03 05:53:12;;;;;;;9.93;9.33;;;42.70;42.40;;;;;;5040878;28;20193;-84
2022/07/03 05:55:38;;;;;;;8.13;7.73;;;43.50;41.40;;;;;;5038988;28;20182;-85
2022/07/03 05:58:03;;;;;;;8.90;8.30;;;43.70;40.00;;;;;;5041706;28;20216;-84
2022/07/03 06:00:29;;;;;;;9.37;8.63;;;44.30;40.50;;;;;;5042028;28;20181;-85
2022/07/03 06:02:55;;;;;;;9.80;7.63;;;44.60;40.10;;;;;;5038589;28;20184;-85
2022/07/03 06:05:20;;;;;;;10.30;6.90;;;43.40;39.90;;;;;;5041363;28;20178;-84
2022/07/03 06:07:46;;;;;;;7.50;6.80;;;42.50;42.00;;;;;;5037008;28;20185;-85
2022/07/03 06:10:11;;;;;;;8.20;7.60;;;42.70;42.60;;;;;;5040244;28;20208;-84
2022/07/03 06:12:37;;;;;;;7.70;7.30;;;43.10;40.40;;;;;;5039620;28;20331;-85
2022/07/03 06:15:03;;;;;;;8.63;8.00;;;43.90;40.60;;;;;;5038366;28;20656;-85
2022/07/03 06:17:29;;;;;;;7.83;7.13;;;42.80;39.30;;;;;;5040274;28;20181;-84
2022/07/03 06:19:54;;;;;;;11.53;8.33;;;42.30;41.60;;;;;;5040314;28;20454;-84
2022/07/03 06:22:20;;;;;;;9.60;8.90;;;42.10;41.90;;;;;;5040127;28;20189;-83
2022/07/03 06:24:45;;;;;;;10.37;9.70;;;42.10;42.00;;;;;;5034840;28;20189;-83
2022/07/03 06:27:11;;;;;;;8.93;8.43;;;41.10;44.20;;;;;;5039096;28;20208;-85
2022/07/03 06:29:37;;;;;;;9.60;9.10;;;;;;;;;;5027571;22;20253;-89
2022/07/03 06:32:03;;;;;;;10.60;9.90;;;41.70;41.20;;;;;;4997314;28;20254;-86
2022/07/03 06:34:28;;;;;;;10.43;9.63;;;42.30;42.50;;;;;;5001216;28;20438;-88
2022/07/03 06:36:54;;;;;;;9.43;8.83;;;;;;;;;;4999281;28;20189;-88
2022/07/03 06:39:20;;;;;;;7.60;7.20;;;;;;;;;;4989975;28;20229;-88
2022/07/03 06:41:46;;;;;;;7.27;6.77;;;43.70;38.90;;;;;;4991816;28;20428;-90
2022/07/03 06:44:11;;;;;;;7.17;6.67;;;43.10;40.60;;;;;;5006524;28;20455;-89
2022/07/03 06:46:37;;;;;;;7.40;6.80;;;;;;;;;;4999956;28;20206;-89
2022/07/03 06:49:03;;;;;;;7.73;7.23;;;42.50;41.70;;;;;;5000995;28;20210;-86
2022/07/03 06:51:28;;;;;;;6.43;6.13;;;41.90;41.90;;;;;;4998103;28;20481;-88
2022/07/03 06:53:54;;;;;;;5.83;5.30;;;;;;;;;;4992048;28;20196;-90
2022/07/03 06:56:20;;;;;;;6.97;6.37;;;;;;;;;;5015706;28;20182;-85
2022/07/03 06:58:46;;;;;;;7.60;7.10;;;;;;;;;;5026638;28;20714;-88
2022/07/03 07:01:11;;;;;;;7.83;7.43;;;42.90;38.80;;;;;;5016421;28;20422;-85
2022/07/03 07:03:37;;;;;;;6.37;5.90;;;;;;;;;;5007407;28;20184;-83
2022/07/03 07:06:03;;;;;;;6.20;5.77;;;43.40;39.20;;;;;;5001687;28;20190;-88
2022/07/03 07:08:28;;;;;;;8.03;7.60;;;44.10;37.60;;;;;;4992756;28;20461;-87
2022/07/03 07:10:54;;;;;;;9.70;9.20;;;42.90;36.60;;;;;;5017153;28;20628;-87
2022/07/03 07:13:20;;;;;;;9.50;9.00;;;;;;;;;;5008978;28;20207;-87
2022/07/03 07:15:45;;;;;;;9.83;9.23;;;42.50;37.70;;;;;;4994404;28;20273;-84
2022/07/03 07:18:11;;;;;;;9.07;8.67;;;;;;;;;;4991497;28;20480;-87
2022/07/03 07:20:37;;;;;;;9.50;8.93;;;44.10;36.40;;;;;;4993226;28;20217;-87
2022/07/03 07:23:03;;;;;;;8.10;7.80;;;;;;;;;;4985788;28;20205;-87
2022/07/03 07:25:29;;;;;;;33.93;10.20;;;;;;;;;;4996226;28;20217;-88
2022/07/03 07:27:55;;;;;;;7.13;6.70;;;;;;;;;;5020641;28;20448;-87
2022/07/03 07:30:20;;;;;;;8.63;8.20;;;46.80;32.00;;;;;;5018999;28;20206;-86
2022/07/03 07:32:46;;;;;;;11.80;6.60;;;;;;;;;;4999661;28;20206;-88
2022/07/03 07:35:12;;;;;;;7.33;6.87;;;;;;;;;;4991560;28;20190;-85
2022/07/03 07:37:38;;;;;;;7.50;7.10;;;48.20;30.40;;;;;;4991459;28;20222;-89
2022/07/03 07:40:04;;;;;;;8.73;8.13;;;47.60;30.80;;;;;;5002708;28;20178;-88
2022/07/03 07:42:30;;;;;;;8.30;7.60;;;;;;;;;;4994700;28;20252;-86
2022/07/03 07:44:56;;;;;;;7.10;6.80;;;;;;;;;;4997308;28;21417;-87
2022/07/03 07:47:21;;;;;;;6.90;6.60;;;45.90;31.70;;;;;;4987178;28;20463;-85
2022/07/03 07:49:47;;;;;;;7.50;7.00;;;;;;;;;;4984762;28;20225;-85
2022/07/03 07:52:13;;;;;;;7.63;7.13;;;46.60;30.80;;;;;;4978989;28;20183;-84
2022/07/03 07:54:38;;;;;;;6.90;6.57;;;48.60;31.40;;;;;;4977581;28;20190;-85
2022/07/03 07:57:04;;;;;;;7.20;6.60;;;43.40;32.80;;;;;;4975385;28;20178;-85
2022/07/03 07:59:30;;;;;;;6.80;6.40;;;43.30;33.40;;;;;;5004230;28;20265;-85
2022/07/03 08:07:24;;;;;;;12.37;11.87;;;40.80;33.60;;;;;;5001519;28;20503;-87
2022/07/03 08:09:52;;;;;;;12.50;12.00;;;37.90;37.20;;;;;;5010315;28;20468;-85
2022/07/03 08:12:18;;;;;;;12.27;11.77;;;38.20;36.70;;;;;;5010480;28;20178;-88
2022/07/03 08:14:44;;;;;;;13.17;12.57;;;38.50;35.60;;;;;;5004773;28;20466;-85
2022/07/03 08:17:09;;;;;;;12.77;12.27;;;39.70;35.00;;;;;;4996211;28;22299;-85
2022/07/03 08:19:35;;;;;;;13.03;12.53;;;39.70;35.50;;;;;;4990767;28;20186;-86
2022/07/03 08:22:01;;;;;;;13.40;12.80;;;41.20;36.20;;;;;;4992272;28;21255;-86
2022/07/03 08:24:27;;;;;;;13.57;12.87;;;41.20;33.80;;;;;;4998321;28;20226;-89
2022/07/03 08:26:52;;;;;;;13.50;13.00;;;41.00;34.00;;;;;;4992339;28;20198;-85
2022/07/03 08:29:18;;;;;;;13.20;12.70;;;41.80;34.70;;;;;;4992132;28;20475;-86
2022/07/03 08:31:44;;;;;;;13.10;12.40;;;42.30;34.40;;;;;;4998531;28;20237;-88
2022/07/03 08:34:12;;;;;;;12.70;12.10;;;41.50;35.30;;;;;;4995363;28;20189;-85
2022/07/03 08:36:40;;;;;;;13.07;12.17;;;41.00;34.30;;;;;;4996653;28;20263;-86
2022/07/03 08:39:06;;;;;;;12.87;12.27;;;39.80;35.40;;;;;;4995861;28;20454;-85
2022/07/03 08:41:32;;;;;;;13.40;12.90;;;39.50;34.10;;;;;;4995934;28;20457;-85
2022/07/03 08:44:00;;;;;;;11.60;11.10;;;37.80;36.40;;;;;;5000924;28;20244;-85
2022/07/03 08:46:27;;;;;;;11.00;10.60;;;36.30;37.10;;;;;;4997170;28;20446;-85
2022/07/03 08:48:54;;;;;;;10.90;10.40;;;36.50;39.40;;;;;;5010058;28;20463;-87
2022/07/03 08:51:21;;;;;;;12.17;11.70;;;37.00;38.00;;;;;;4991261;28;20452;-85
2022/07/03 08:53:47;;;;;;;11.53;11.03;;;37.10;38.90;;;;;;4998842;28;20440;-86
2022/07/03 08:56:13;;;;;;;12.17;11.47;;;37.70;39.90;;;;;;5008058;28;20428;-84
2022/07/03 08:58:39;;;;;;;10.63;10.17;;;37.30;38.00;;;;;;5014854;28;20514;-85
2022/07/03 09:01:05;;;;;;;10.73;10.23;;;36.90;40.20;;;;;;5013216;28;20240;-85
2022/07/03 09:03:31;;;;;;;11.23;10.73;;;36.20;38.20;;;;;;4998437;28;20281;-87
2022/07/03 09:05:58;;;;;;;10.90;10.50;;;36.80;38.40;;;;;;5004911;28;20322;-87
2022/07/03 09:08:24;;;;;;;11.70;10.90;;;;;;;;;;4996303;28;20472;-83
2022/07/03 09:10:50;;;;;;;9.93;9.53;;;;;;;;;;4993018;28;20472;-86
2022/07/03 09:13:16;;;;;;;10.87;9.80;;;;;;;;;;5002368;28;20441;-84
2022/07/03 09:15:44;;;;;;;9.73;9.33;;;36.60;38.90;;;;;;5012691;28;22047;-85
2022/07/03 09:18:09;;;;;;;8.83;8.50;;;35.00;40.20;;;;;;4987653;28;20471;-86
2022/07/03 09:20:38;;;;;;;8.80;8.50;;;34.10;43.20;;;;;;4994208;28;20448;-86
2022/07/03 09:23:12;;;;;;;10.33;9.80;;;35.30;41.10;;;;;;4996429;28;20184;-87
2022/07/03 09:25:58;;;;;;;7.77;7.47;;;36.00;40.20;;;;;;4977007;28;20503;-88
2022/07/03 09:28:42;;;;;;;7.67;7.37;;;36.20;40.20;;;;;;5004451;28;21191;-88
2022/07/03 09:31:09;;;;;;;10.53;9.90;;;36.20;39.70;;;;;;4995558;28;20441;-88
2022/07/03 09:33:35;;;;;;;9.63;9.23;;;35.30;38.90;;;;;;4991047;28;20518;-89
2022/07/03 09:36:00;;;;;;;9.60;9.10;;;36.00;41.10;;;;;;4989416;28;20491;-90
2022/07/03 09:38:26;;;;;;;8.70;8.30;;;34.20;39.20;;;;;;4992515;28;20228;-88
2022/07/03 09:40:57;;;;;;;8.10;7.70;;;32.90;41.30;;;;;;4994207;28;20239;-87
2022/07/03 09:43:29;;;;;;;7.90;7.50;;;32.00;42.70;;;;;;4990156;28;20726;-86
2022/07/03 09:45:56;;;;;;;7.73;7.43;;;31.60;43.30;;;;;;4994128;28;21065;-87
2022/07/03 09:48:33;;;;;;;7.97;7.57;;;32.10;43.20;;;;;;5023322;28;20549;-89
2022/07/03 09:51:21;;;;;;;6.80;6.50;;;31.80;41.70;;;;;;5030541;28;20472;-87
2022/07/03 09:53:50;;;;;;;7.10;6.60;;;31.30;44.30;;;;;;5014445;28;20607;-89
2022/07/03 09:56:16;;;;;;;7.90;7.60;;;32.70;43.80;;;;;;5007569;28;20473;-88
2022/07/03 09:58:59;;;;;;;6.63;6.43;;;33.90;43.20;;;;;;5002314;28;20455;-87
2022/07/03 10:01:25;;;;;;;7.87;7.37;;;33.80;42.20;;;;;;5000580;28;21955;-89
2022/07/03 10:03:50;;;;;;;7.60;7.10;;;33.30;43.40;;;;;;5002195;28;20958;-88
2022/07/03 10:06:16;;;;;;;6.60;6.30;;;32.20;44.20;;;;;;4994460;28;20212;-86
2022/07/03 10:08:43;;;;;;;6.60;6.30;;;31.30;45.60;;;;;;5004954;28;20209;-88
2022/07/03 10:11:09;;;;;;;7.07;6.77;;;32.60;45.50;;;;;;4997974;28;20279;-88
2022/07/03 10:13:39;;;;;;;7.07;6.70;;;32.30;44.70;;;;;;5019658;28;20949;-87
2022/07/03 10:16:06;;;;;;;7.00;6.70;;;31.40;44.40;;;;;;5001251;28;20184;-87
2022/07/03 10:18:37;;;;;;;6.73;6.43;;;32.20;44.10;;;;;;4990626;28;20466;-86
2022/07/03 10:21:06;;;;;;;6.03;5.70;;;31.80;46.40;;;;;;4998922;28;20596;-88
2022/07/03 10:23:32;;;;;;;6.00;5.70;;;32.40;46.70;;;;;;4993295;28;20434;-89
2022/07/03 10:25:58;;;;;;;6.73;6.30;;;31.50;44.90;;;;;;5001030;28;20457;-89
2022/07/03 10:28:24;;;;;;;6.00;5.80;;;30.70;45.30;;;;;;5021621;28;20476;-87
2022/07/03 10:30:50;;;;;;;6.73;6.13;;;31.40;48.00;;;;;;4995151;28;20488;-89
2022/07/03 10:33:16;;;;;;;5.80;5.60;;;32.30;46.20;;;;;;4995817;28;20451;-89
2022/07/03 10:35:44;;;;;;;6.70;6.17;;;31.70;45.60;;;;;;5000000;28;20212;-87
2022/07/03 10:38:31;;;;;;;6.07;5.77;;;31.10;46.60;;;;;;4991505;28;20470;-88
2022/07/03 10:46:35;;;;;;;4.47;4.27;;;30.60;47.90;;;;;;4995676;28;20477;-88
2022/07/03 10:49:03;;;;;;;5.17;4.80;;;29.50;48.00;;;;;;4996800;28;20508;-88
2022/07/03 10:51:31;;;;;;;3.93;3.63;;;29.00;50.60;;;;;;4990688;28;20296;-86
2022/07/03 10:54:33;;;;;;;3.90;3.60;;;28.90;52.20;;;;;;4993839;28;20523;-86
2022/07/03 10:56:59;;;;;;;2.23;1.40;;;28.70;52.00;;;;;;4994076;28;20450;-83
2022/07/03 10:59:37;;;;;;;1.90;1.03;;;28.60;54.80;;;;;;4992346;28;20457;-84
2022/07/03 11:02:34;;;;;;;2.80;1.40;;;28.20;53.90;;;;;;4997511;28;20183;-84
2022/07/03 11:04:59;;;;;;;1.27;1.17;;;28.30;55.60;;;;;;5027783;28;20430;-84
2022/07/03 11:07:26;;;;;;;2.10;1.37;;;28.30;54.40;;;;;;5041630;22;20590;-84
2022/07/03 11:10:15;;;;;;;1.97;1.20;;;28.40;52.20;;;;;;5013187;28;20214;-86
2022/07/03 11:12:57;;;;;;;1.10;1.00;;;28.40;53.20;;;;;;5005867;28;20777;-85
2022/07/03 11:15:47;;;;;;;1.17;1.03;;;28.30;53.80;;;;;;5030449;28;20421;-86
2022/07/03 11:18:33;;;;;;;4.33;1.50;;;28.10;54.20;;;;;;5013436;28;20491;-84
2022/07/03 11:21:13;;;;;;;1.27;1.03;;;28.20;57.10;;;;;;5016790;28;20445;-88
2022/07/03 11:23:52;;;;;;;10.30;3.97;;;28.40;56.00;;;;;;5011989;28;20792;-86
2022/07/03 11:26:17;;;;;;;0.87;0.87;;;28.60;55.00;;;;;;5013722;28;20433;-86
2022/07/03 11:28:43;;;;;;;1.40;1.23;;;28.30;56.20;;;;;;5015061;28;20999;-86
2022/07/03 11:33:47;;;;;;;5.13;1.10;;;28.30;57.00;;;;;;5015474;28;20186;-87
2022/07/03 11:36:15;;;;;;;11.20;1.63;;;28.10;56.00;;;;;;5016736;28;20241;-86
2022/07/03 11:38:46;;;;;;;1.00;0.90;;;28.10;57.50;;;;;;5015427;28;20484;-85
2022/07/03 11:41:13;;;;;;;1.90;1.20;;;28.30;56.10;;;;;;5014215;28;20426;-87
2022/07/03 11:43:58;;;;;;;1.57;1.30;;;28.30;55.20;;;;;;5015881;28;20839;-86
2022/07/03 11:46:25;;;;;;;1.40;1.03;;;28.90;55.90;;;;;;5015726;28;20808;-87
2022/07/03 11:49:07;;;;;;;2.37;1.20;;;29.10;54.50;;;;;;5011687;28;20456;-86
2022/07/03 11:51:37;;;;;;;5.43;2.37;;;29.20;53.00;;;;;;5026071;28;20435;-87
2022/07/03 11:54:03;;;;;;;3.60;1.00;;;28.80;53.60;;;;;;5013701;28;21033;-85
2022/07/03 11:56:30;;;;;;;1.50;1.30;;;28.70;54.40;;;;;;5022224;28;20464;-86
2022/07/03 11:58:58;;;;;;;2.33;1.40;;;29.00;57.80;;;;;;5013771;28;20475;-86
2022/07/03 12:01:24;;;;;;;2.57;1.13;;;28.90;56.30;;;;;;5012209;28;20430;-87
2022/07/03 12:03:49;;;;;;;2.03;1.23;;;29.20;54.20;;;;;;5016527;28;20407;-87
2022/07/03 12:06:16;;;;;;;2.43;1.30;;;29.30;55.00;;;;;;5014765;28;21045;-86
2022/07/03 12:08:46;;;;;;;1.57;1.20;;;28.90;54.70;;;;;;5011313;28;20207;-87
2022/07/03 12:11:15;;;;;;;1.80;1.40;;;28.90;55.00;;;;;;5013880;28;21375;-87
2022/07/03 12:13:40;;;;;;;1.80;1.00;;;28.90;55.60;;;;;;5014787;28;20474;-85
2022/07/03 12:16:13;;;;;;;2.03;1.23;;;28.80;55.70;;;;;;5014529;28;20428;-86
2022/07/03 12:18:51;;;;;;;1.20;1.10;;;29.00;55.60;;;;;;5011679;28;20196;-84
2022/07/03 12:21:19;;;;;;;4.30;1.00;;;29.30;55.20;;;;;;5021365;28;21004;-87
2022/07/03 12:23:48;;;;;;;1.27;1.17;;;29.80;54.60;;;;;;5015395;28;20836;-85
2022/07/03 12:26:30;;;;;;;4.63;1.43;;;29.70;54.10;;;;;;5015347;28;20448;-85
2022/07/03 12:29:07;;;;;;;1.67;1.27;;;29.40;54.80;;;;;;5100741;22;20643;-88
2022/07/03 12:31:33;;;;;;;1.73;0.77;;;29.20;54.30;;;;;;5026981;28;20481;-88
2022/07/03 12:34:00;;;;;;;3.73;1.40;;;29.40;54.60;;;;;;5017757;28;20495;-86
2022/07/03 12:36:27;;;;;;;1.40;1.20;;;29.60;54.60;;;;;;5018188;28;20469;-89
2022/07/03 12:38:56;;;;;;;1.70;1.40;;;29.80;56.00;;;;;;5018738;28;20448;-88
2022/07/03 12:41:22;;;;;;;1.10;1.00;;;29.90;52.50;;;;;;5020615;28;20456;-88
2022/07/03 12:43:50;;;;;;;1.80;1.30;;;29.90;52.30;;;;;;5029956;28;20458;-90
2022/07/03 12:46:21;;;;;;;1.73;1.17;;;30.20;50.80;;;;;;5019224;28;20512;-90
2022/07/03 12:48:54;;;;;;;2.70;1.03;;;30.30;51.00;;;;;;5015900;28;21034;-90
2022/07/03 12:51:39;;;;;;;1.10;1.00;;;30.10;51.40;;;;;;5011303;28;20434;-90
2022/07/03 12:54:15;;;;;;;2.20;1.30;;;29.50;51.00;;;;;;5019733;28;20442;-87
2022/07/03 12:56:43;;;;;;;1.10;1.00;;;29.30;54.00;;;;;;5025685;28;20449;-88
2022/07/03 12:59:25;;;;;;;5.23;1.20;;;28.90;54.20;;;;;;5018081;28;20467;-90
2022/07/03 13:02:01;;;;;;;1.63;1.10;;;28.60;54.00;;;;;;5016431;28;20428;-87
2022/07/03 13:04:35;;;;;;;3.00;1.13;;;28.80;55.10;;;;;;5030232;28;20437;-88
2022/07/03 13:07:07;;;;;;;1.50;1.20;;;29.20;54.40;;;;;;5017383;28;20435;-88
2022/07/03 13:09:35;;;;;;;4.47;1.20;;;29.40;54.10;;;;;;5015086;28;20540;-91
2022/07/03 13:12:00;;;;;;;1.77;1.27;;;29.40;54.10;;;;;;5014880;28;20423;-89
2022/07/03 13:14:26;;;;;;;1.00;0.90;;;29.60;53.90;;;;;;5014001;28;20444;-87
2022/07/03 13:16:55;;;;;;;3.20;0.87;;;29.40;52.10;;;;;;5016304;28;20240;-88
2022/07/03 13:19:27;;;;;;;2.10;1.17;;;29.30;54.20;;;;;;5011688;28;20202;-88
2022/07/03 13:21:55;;;;;;;1.60;1.00;;;29.40;52.60;;;;;;5018935;28;20854;-88